createdAt,value
2022-12-08T00:01:15.816Z,13.23
2022-12-08T00:03:43.118Z,11.95
2022-12-08T00:06:40.731Z,10.40
2022-12-08T00:09:24.623Z,9.70
2022-12-08T00:11:55.580Z,7.90
2022-12-08T00:14:27.983Z,9.93
2022-12-08T00:16:54.888Z,6.85
2022-12-08T00:19:21.748Z,11.50
2022-12-08T00:21:48.507Z,8.38
2022-12-08T00:24:15.021Z,8.50
2022-12-08T00:26:41.533Z,10.98
2022-12-08T00:29:11.917Z,9.10
2022-12-08T00:31:42.570Z,8.52
2022-12-08T00:34:09.640Z,9.88
2022-12-08T00:36:36.119Z,9.00
2022-12-08T00:39:02.644Z,12.52
2022-12-08T00:41:47.757Z,10.43
2022-12-08T00:44:15.778Z,9.73
2022-12-08T00:46:42.462Z,8.98
2022-12-08T00:49:09.125Z,9.68
2022-12-08T00:51:35.812Z,10.70
2022-12-08T00:54:02.432Z,12.52
2022-12-08T00:56:29.218Z,6.20
2022-12-08T00:58:55.730Z,7.10
2022-12-08T01:01:22.729Z,6.25
2022-12-08T01:03:49.845Z,6.78
2022-12-08T01:06:16.654Z,5.43
2022-12-08T01:08:43.285Z,6.18
2022-12-08T01:11:11.638Z,7.25
2022-12-08T01:13:38.149Z,6.05
2022-12-08T01:16:04.942Z,8.77
2022-12-08T01:18:31.793Z,6.40
2022-12-08T01:21:07.729Z,7.10
2022-12-08T01:23:35.044Z,8.30
2022-12-08T01:26:03.159Z,9.25
2022-12-08T01:28:30.823Z,7.90
2022-12-08T01:30:57.830Z,7.78
2022-12-08T01:33:24.647Z,7.25
2022-12-08T01:35:51.229Z,6.50
2022-12-08T01:38:18.012Z,5.78
2022-12-08T01:40:44.691Z,3.95
2022-12-08T01:43:18.898Z,5.57
2022-12-08T01:45:45.685Z,5.93
2022-12-08T01:48:19.470Z,5.60
2022-12-08T01:50:46.905Z,4.43
2022-12-08T01:53:22.375Z,6.43
2022-12-08T01:55:51.213Z,5.70
2022-12-08T01:58:20.736Z,6.03
2022-12-08T02:00:48.659Z,6.93
2022-12-08T02:03:28.409Z,5.18
2022-12-08T02:05:55.248Z,7.07
2022-12-08T02:08:22.967Z,4.93
2022-12-08T02:10:51.102Z,9.02
2022-12-08T02:13:19.458Z,6.13
2022-12-08T02:16:04.749Z,4.40
2022-12-08T02:19:08.010Z,8.00
2022-12-08T02:21:36.619Z,4.15
2022-12-08T02:24:12.614Z,4.22
2022-12-08T02:26:54.282Z,4.70
2022-12-08T02:29:20.993Z,6.57
2022-12-08T02:32:02.632Z,5.28
2022-12-08T02:34:33.749Z,5.57
2022-12-08T02:37:19.059Z,5.70
2022-12-08T02:39:46.261Z,5.35
2022-12-08T02:42:12.793Z,4.05
2022-12-08T02:45:00.604Z,4.03
2022-12-08T02:47:28.232Z,3.58
2022-12-08T02:49:55.566Z,5.05
2022-12-08T02:52:22.223Z,4.65
2022-12-08T02:54:53.413Z,5.70
2022-12-08T02:57:29.121Z,4.88
2022-12-08T03:00:02.449Z,4.05
2022-12-08T03:02:44.457Z,5.57
2022-12-08T03:05:26.443Z,4.45
2022-12-08T03:08:10.718Z,4.45
2022-12-08T03:10:40.712Z,7.13
2022-12-08T03:13:12.883Z,5.65
2022-12-08T03:15:40.142Z,5.05
2022-12-08T03:18:08.343Z,4.90
2022-12-08T03:20:35.365Z,5.28
2022-12-08T03:23:04.989Z,12.77
2022-12-08T03:25:33.633Z,9.02
2022-12-08T03:28:00.567Z,9.10
2022-12-08T03:30:28.675Z,9.57
2022-12-08T03:32:58.618Z,8.77
2022-12-08T03:35:27.526Z,10.43
2022-12-08T03:38:02.336Z,10.63
2022-12-08T03:40:28.983Z,10.63
2022-12-08T03:42:55.463Z,6.60
2022-12-08T03:45:22.005Z,6.20
2022-12-08T03:47:48.684Z,6.78
2022-12-08T03:50:15.264Z,8.07
2022-12-08T03:52:41.768Z,8.85
2022-12-08T03:55:08.920Z,8.32
2022-12-08T03:57:35.501Z,7.50
2022-12-08T04:00:02.792Z,8.18
2022-12-08T04:02:29.761Z,8.30
2022-12-08T04:04:56.224Z,8.23
2022-12-08T04:07:22.680Z,8.13
2022-12-08T04:09:49.489Z,6.65
2022-12-08T04:12:15.966Z,6.03
2022-12-08T04:14:42.417Z,6.82
2022-12-08T04:17:09.077Z,7.95
2022-12-08T04:19:35.773Z,6.70
2022-12-08T04:22:02.245Z,6.35
2022-12-08T04:24:28.821Z,6.03
2022-12-08T04:26:55.468Z,5.00
2022-12-08T04:29:21.903Z,7.22
2022-12-08T04:31:48.641Z,7.65
2022-12-08T04:34:15.283Z,9.77
2022-12-08T04:36:41.731Z,9.02
2022-12-08T04:39:08.236Z,7.32
2022-12-08T04:41:35.016Z,6.85
2022-12-08T04:44:01.467Z,7.10
2022-12-08T04:46:27.982Z,6.05
2022-12-08T04:48:54.854Z,5.90
2022-12-08T04:51:21.398Z,7.70
2022-12-08T04:53:48.313Z,6.53
2022-12-08T04:56:15.873Z,6.72
2022-12-08T04:58:42.739Z,6.35
2022-12-08T05:01:09.257Z,6.45
2022-12-08T05:03:36.167Z,6.70
2022-12-08T05:06:03.085Z,6.55
2022-12-08T05:08:30.034Z,5.30
2022-12-08T05:11:07.197Z,5.28
2022-12-08T05:13:33.728Z,9.10
2022-12-08T05:16:07.397Z,5.93
2022-12-08T05:18:34.462Z,8.27
2022-12-08T05:21:00.963Z,5.50
2022-12-08T05:23:27.665Z,5.88
2022-12-08T05:25:54.276Z,5.15
2022-12-08T05:28:40.744Z,8.93
2022-12-08T05:31:07.682Z,6.55
2022-12-08T05:33:34.152Z,6.97
2022-12-08T05:36:00.578Z,5.80
2022-12-08T05:38:27.324Z,6.97
2022-12-08T05:40:53.787Z,10.93
2022-12-08T05:43:20.256Z,6.20
2022-12-08T05:45:47.030Z,9.38
2022-12-08T05:48:13.643Z,6.07
2022-12-08T05:50:40.229Z,9.77
2022-12-08T05:53:06.881Z,7.43
2022-12-08T05:55:33.322Z,5.85
2022-12-08T05:58:04.551Z,6.32
2022-12-08T06:00:37.058Z,7.60
2022-12-08T06:03:03.614Z,5.80
2022-12-08T06:05:32.032Z,7.13
2022-12-08T06:07:59.183Z,6.80
2022-12-08T06:10:25.704Z,5.82
2022-12-08T06:12:52.201Z,7.93
2022-12-08T06:15:18.931Z,9.52
2022-12-08T06:17:45.458Z,8.52
2022-12-08T06:20:12.128Z,10.63
2022-12-08T06:22:38.814Z,7.00
2022-12-08T06:25:08.544Z,6.40
2022-12-08T06:27:36.494Z,8.23
2022-12-08T06:30:03.569Z,6.40
2022-12-08T06:32:30.266Z,7.40
2022-12-08T06:34:56.773Z,8.73
2022-12-08T06:37:23.521Z,11.20
2022-12-08T06:39:50.024Z,9.05
2022-12-08T06:42:35.069Z,6.15
2022-12-08T06:45:01.691Z,7.47
2022-12-08T06:47:28.158Z,7.20
2022-12-08T06:49:54.816Z,6.28
2022-12-08T06:52:21.441Z,5.65
2022-12-08T06:54:47.907Z,7.15
2022-12-08T06:57:14.479Z,6.78
2022-12-08T06:59:41.053Z,9.45
2022-12-08T07:02:07.711Z,8.70
2022-12-08T07:04:34.456Z,9.30
2022-12-08T07:07:01.014Z,7.70
2022-12-08T07:09:27.657Z,8.75
2022-12-08T07:11:54.250Z,7.20
2022-12-08T07:14:24.808Z,9.85
2022-12-08T07:16:51.634Z,7.72
2022-12-08T07:19:18.886Z,6.28
2022-12-08T07:21:45.377Z,7.82
2022-12-08T07:24:11.893Z,8.15
2022-12-08T07:26:38.703Z,9.52
2022-12-08T07:29:05.276Z,8.65
2022-12-08T07:31:31.835Z,12.45
2022-12-08T07:33:59.161Z,9.35
2022-12-08T07:36:25.677Z,10.07
2022-12-08T07:38:55.483Z,7.78
2022-12-08T07:41:23.632Z,7.70
2022-12-08T07:43:50.358Z,7.80
2022-12-08T07:46:18.379Z,9.13
2022-12-08T07:48:45.309Z,7.35
2022-12-08T07:51:13.763Z,7.47
2022-12-08T07:53:42.683Z,8.95
2022-12-08T07:56:10.693Z,11.73
2022-12-08T07:58:37.282Z,8.70
2022-12-08T08:01:03.920Z,9.63
2022-12-08T08:03:30.995Z,9.95
2022-12-08T08:06:04.683Z,25.80
2022-12-08T08:08:32.002Z,9.88
2022-12-08T08:10:59.314Z,10.48
2022-12-08T08:13:25.838Z,10.80
2022-12-08T08:15:52.577Z,27.23
2022-12-08T08:18:19.141Z,8.82
2022-12-08T08:20:45.648Z,10.50
2022-12-08T08:23:12.224Z,8.27
2022-12-08T08:25:38.687Z,8.18
2022-12-08T08:28:05.370Z,11.05
2022-12-08T08:30:32.017Z,9.10
2022-12-08T08:32:58.575Z,11.63
2022-12-08T08:35:25.188Z,12.45
2022-12-08T08:37:51.709Z,9.18
2022-12-08T08:40:18.460Z,8.25
2022-12-08T08:42:45.080Z,8.23
2022-12-08T08:45:11.704Z,10.60
2022-12-08T08:47:38.194Z,11.48
2022-12-08T08:50:05.382Z,9.80
2022-12-08T08:52:32.174Z,9.45
2022-12-08T08:54:58.644Z,7.07
2022-12-08T08:57:25.996Z,9.50
2022-12-08T08:59:53.291Z,9.07
2022-12-08T09:02:20.434Z,7.30
2022-12-08T09:04:47.302Z,12.02
2022-12-08T09:07:14.405Z,9.93
2022-12-08T09:09:41.025Z,12.20
2022-12-08T09:12:08.387Z,8.35
2022-12-08T09:14:34.909Z,7.82
2022-12-08T09:17:01.506Z,10.45
2022-12-08T09:19:28.128Z,9.65
2022-12-08T09:21:54.727Z,9.13
2022-12-08T09:24:21.326Z,9.35
2022-12-08T09:26:48.468Z,10.43
2022-12-08T09:29:15.089Z,9.02
2022-12-08T09:31:42.036Z,12.13
2022-12-08T09:34:08.886Z,16.02
2022-12-08T09:36:35.567Z,10.70
2022-12-08T09:39:02.104Z,11.05
2022-12-08T09:41:40.655Z,10.73
2022-12-08T09:44:28.903Z,13.90
2022-12-08T09:46:56.216Z,10.15
2022-12-08T09:49:25.356Z,9.55
2022-12-08T09:51:51.850Z,13.80
2022-12-08T09:54:18.640Z,9.75
2022-12-08T09:56:45.178Z,10.20
2022-12-08T09:59:17.908Z,9.85
2022-12-08T10:01:44.782Z,9.75
2022-12-08T10:04:19.576Z,10.63
2022-12-08T10:07:06.400Z,7.63
2022-12-08T10:09:51.358Z,8.38
2022-12-08T10:12:21.323Z,6.40
2022-12-08T10:14:58.069Z,8.88
2022-12-08T10:17:38.300Z,9.10
2022-12-08T10:20:18.607Z,9.43
2022-12-08T10:22:46.723Z,7.68
2022-12-08T10:25:16.328Z,7.25
2022-12-08T10:27:42.833Z,6.97
2022-12-08T10:30:13.363Z,5.53
2022-12-08T10:32:41.051Z,7.32
2022-12-08T10:35:09.391Z,5.85
2022-12-08T10:37:36.083Z,5.88
2022-12-08T10:40:08.672Z,7.63
2022-12-08T10:42:41.162Z,6.70
2022-12-08T10:45:10.393Z,7.05
2022-12-08T10:47:44.825Z,15.90
2022-12-08T10:50:23.072Z,10.25
2022-12-08T10:52:59.171Z,7.72
2022-12-08T10:55:26.191Z,7.03
2022-12-08T10:57:52.750Z,7.97
2022-12-08T11:00:24.525Z,8.93
2022-12-08T11:02:55.652Z,7.97
2022-12-08T11:05:23.590Z,8.05
2022-12-08T11:07:51.821Z,9.10
2022-12-08T11:10:19.253Z,6.57
2022-12-08T11:12:45.988Z,4.95
2022-12-08T11:15:16.858Z,6.18
2022-12-08T11:17:46.051Z,10.05
2022-12-08T11:20:15.367Z,5.97
2022-12-08T11:22:42.972Z,7.88
2022-12-08T11:25:12.302Z,7.60
2022-12-08T11:27:40.668Z,6.00
2022-12-08T11:30:14.838Z,18.33
2022-12-08T11:32:45.297Z,5.00
2022-12-08T11:35:29.446Z,4.90
2022-12-08T11:38:13.542Z,5.03
2022-12-08T11:40:45.431Z,3.60
2022-12-08T11:43:16.913Z,5.10
2022-12-08T11:45:43.657Z,3.50
2022-12-08T11:48:13.264Z,4.93
2022-12-08T11:50:43.087Z,3.57
2022-12-08T11:53:18.753Z,4.40
2022-12-08T11:55:53.771Z,4.43
2022-12-08T11:58:35.152Z,4.30
2022-12-08T12:01:01.799Z,6.13
2022-12-08T12:03:34.033Z,6.73
2022-12-08T12:06:38.055Z,13.43
2022-12-08T12:09:11.111Z,3.70
2022-12-08T12:12:11.678Z,5.28
2022-12-08T12:14:41.760Z,3.53
2022-12-08T12:17:23.410Z,5.33
2022-12-08T12:20:29.786Z,4.43
2022-12-08T12:23:34.994Z,6.77
2022-12-08T12:26:41.437Z,6.73
2022-12-08T12:29:50.946Z,7.73
2022-12-08T12:33:01.731Z,3.00
2022-12-08T12:36:17.228Z,4.97
2022-12-08T12:39:09.428Z,5.00
2022-12-08T12:41:36.155Z,5.83
2022-12-08T12:44:15.451Z,4.17
2022-12-08T12:46:53.511Z,4.63
2022-12-08T12:49:55.690Z,6.80
2022-12-08T12:52:36.495Z,6.90
2022-12-08T12:55:03.109Z,4.30
2022-12-08T12:57:37.126Z,3.33
2022-12-08T13:00:04.095Z,5.43
2022-12-08T13:02:31.394Z,3.27
2022-12-08T13:04:58.003Z,4.90
2022-12-08T13:07:27.123Z,3.80
2022-12-08T13:09:57.065Z,5.67
2022-12-08T13:12:24.641Z,4.93
2022-12-08T13:14:51.929Z,2.80
2022-12-08T13:17:27.269Z,3.73
2022-12-08T13:20:00.179Z,2.50
2022-12-08T13:22:45.207Z,3.30
2022-12-08T13:25:36.527Z,4.10
2022-12-08T13:28:09.067Z,4.10
2022-12-08T13:30:52.865Z,6.35
2022-12-08T13:33:30.286Z,4.03
2022-12-08T13:36:02.182Z,3.00
2022-12-08T13:38:31.484Z,10.63
2022-12-08T13:41:01.271Z,3.83
2022-12-08T13:58:16.413Z,2.37
2022-12-08T14:00:43.319Z,3.73
2022-12-08T14:03:11.681Z,3.07
2022-12-08T14:06:11.033Z,4.13
2022-12-08T14:08:58.932Z,6.63
2022-12-08T14:11:39.129Z,3.97
2022-12-08T14:14:32.810Z,2.57
2022-12-08T14:17:12.143Z,2.60
2022-12-08T14:19:44.680Z,4.67
2022-12-08T14:22:18.877Z,2.45
2022-12-08T14:24:56.446Z,7.07
2022-12-08T14:27:26.262Z,3.63
2022-12-08T14:30:08.925Z,18.07
2022-12-08T14:32:41.026Z,2.63
2022-12-08T14:35:08.260Z,51.58
2022-12-08T14:37:39.414Z,5.90
2022-12-08T14:40:07.514Z,24.47
2022-12-08T14:42:42.438Z,8.53
2022-12-08T14:45:11.148Z,3.07
2022-12-08T14:47:37.634Z,3.60
2022-12-08T14:50:05.808Z,2.17
2022-12-08T14:52:32.660Z,2.37
2022-12-08T14:54:59.292Z,9.93
2022-12-08T14:57:31.403Z,2.90
2022-12-08T14:59:58.113Z,6.97
2022-12-08T15:02:26.573Z,6.50
2022-12-08T15:04:59.367Z,3.63
2022-12-08T15:07:30.427Z,3.80
2022-12-08T15:10:07.949Z,8.73
2022-12-08T15:12:34.711Z,4.23
2022-12-08T15:15:10.643Z,6.30
2022-12-08T15:17:43.046Z,3.23
2022-12-08T15:20:34.561Z,5.32
2022-12-08T15:23:01.754Z,5.37
2022-12-08T15:25:28.332Z,17.83
2022-12-08T15:27:56.468Z,14.50
2022-12-08T15:30:23.488Z,6.53
2022-12-08T15:32:52.509Z,9.73
2022-12-08T15:35:19.164Z,2.93
2022-12-08T15:37:46.555Z,5.53
2022-12-08T15:40:23.165Z,3.03
2022-12-08T15:42:49.671Z,3.87
2022-12-08T15:45:16.972Z,4.63
2022-12-08T15:47:44.536Z,6.97
2022-12-08T15:50:21.272Z,4.25
2022-12-08T15:52:48.274Z,7.80
2022-12-08T15:55:15.559Z,5.00
2022-12-08T15:58:44.592Z,4.37
2022-12-08T16:03:51.667Z,9.10
2022-12-08T16:06:57.607Z,6.20
2022-12-08T16:09:11.097Z,4.80
2022-12-08T16:12:06.346Z,5.15
2022-12-08T16:15:39.766Z,7.30
2022-12-08T16:17:20.593Z,6.17
2022-12-08T16:19:47.044Z,6.88
2022-12-08T16:23:07.626Z,6.10
2022-12-08T16:25:27.326Z,7.13
2022-12-08T16:28:03.032Z,9.13
2022-12-08T16:30:35.264Z,5.57
2022-12-08T16:33:01.866Z,7.25
2022-12-08T16:35:28.493Z,9.13
2022-12-08T16:37:55.205Z,7.68
2022-12-08T16:40:21.987Z,7.75
2022-12-08T16:42:50.183Z,6.85
2022-12-08T16:45:16.896Z,6.22
2022-12-08T16:47:49.560Z,11.77
2022-12-08T16:50:18.493Z,10.98
2022-12-08T16:52:45.163Z,8.25
2022-12-08T16:55:13.390Z,8.27
2022-12-08T16:57:40.136Z,13.63
2022-12-08T17:00:08.187Z,14.40
2022-12-08T17:02:35.334Z,9.77
2022-12-08T17:05:01.864Z,12.82
2022-12-08T17:07:28.351Z,12.57
2022-12-08T17:09:55.146Z,13.88
2022-12-08T17:12:21.792Z,22.38
2022-12-08T17:14:48.294Z,16.60
2022-12-08T17:17:14.954Z,11.20
2022-12-08T17:19:41.442Z,8.77
2022-12-08T17:22:07.938Z,9.60
2022-12-08T17:24:34.599Z,8.27
2022-12-08T17:27:04.476Z,9.20
2022-12-08T17:29:31.970Z,11.77
2022-12-08T17:31:59.659Z,10.57
2022-12-08T17:34:26.170Z,7.93
2022-12-08T17:36:52.732Z,5.90
2022-12-08T17:39:19.740Z,5.90
2022-12-08T17:41:46.583Z,6.72
2022-12-08T17:44:14.270Z,6.10
2022-12-08T17:46:43.434Z,7.27
2022-12-08T17:49:14.853Z,8.27
2022-12-08T17:51:41.631Z,5.53
2022-12-08T17:54:08.384Z,6.10
2022-12-08T17:56:34.903Z,5.30
2022-12-08T17:59:02.697Z,7.82
2022-12-08T18:02:09.214Z,8.27
2022-12-08T18:08:49.648Z,13.65
2022-12-08T18:11:56.158Z,8.45
2022-12-08T18:15:02.556Z,7.20
2022-12-08T18:21:41.192Z,6.40
2022-12-08T18:24:08.611Z,11.50
2022-12-08T18:27:15.224Z,10.25
2022-12-08T18:30:21.568Z,10.45
2022-12-08T18:37:00.354Z,7.20
2022-12-08T18:40:06.878Z,9.23
2022-12-08T18:42:33.825Z,9.23
2022-12-08T18:45:04.289Z,5.93
2022-12-08T18:47:31.872Z,7.03
2022-12-08T18:49:59.144Z,7.38
2022-12-08T18:52:31.713Z,7.18
2022-12-08T18:55:06.430Z,8.30
2022-12-08T18:57:33.514Z,8.82
2022-12-08T19:00:00.001Z,9.57
2022-12-08T19:02:26.608Z,8.73
2022-12-08T19:04:55.531Z,7.90
2022-12-08T19:07:22.073Z,8.33
2022-12-08T19:09:48.577Z,8.38
2022-12-08T19:12:15.131Z,10.25
2022-12-08T19:14:41.690Z,11.02
2022-12-08T19:17:08.654Z,10.95
2022-12-08T19:19:35.484Z,8.85
2022-12-08T19:22:02.073Z,10.50
2022-12-08T19:24:28.980Z,9.35
2022-12-08T19:26:55.546Z,6.45
2022-12-08T19:29:22.033Z,8.45
2022-12-08T19:31:48.763Z,9.13
2022-12-08T19:34:15.712Z,6.43
2022-12-08T19:37:22.166Z,11.13
2022-12-08T19:40:27.562Z,22.60
2022-12-08T19:43:12.476Z,17.83
2022-12-08T19:45:39.150Z,13.80
2022-12-08T19:48:05.814Z,20.67
2022-12-08T19:50:38.916Z,23.83
2022-12-08T19:53:07.399Z,20.65
2022-12-08T19:55:34.104Z,21.55
2022-12-08T19:58:02.011Z,17.10
2022-12-08T20:00:29.737Z,14.05
2022-12-08T20:02:56.433Z,22.02
2022-12-08T20:05:23.419Z,22.33
2022-12-08T20:07:50.384Z,15.63
2022-12-08T20:10:22.160Z,18.35
2022-12-08T20:12:48.800Z,14.82
2022-12-08T20:15:15.426Z,19.40
2022-12-08T20:17:42.254Z,10.48
2022-12-08T20:20:09.973Z,17.35
2022-12-08T20:22:37.016Z,23.17
2022-12-08T20:25:03.625Z,32.08
2022-12-08T20:27:30.248Z,14.93
2022-12-08T20:29:56.942Z,16.20
2022-12-08T20:32:23.454Z,15.20
2022-12-08T20:34:50.120Z,15.35
2022-12-08T20:37:16.987Z,16.10
2022-12-08T20:39:43.521Z,15.25
2022-12-08T20:42:12.858Z,16.48
2022-12-08T20:44:43.663Z,15.57
2022-12-08T20:47:10.743Z,21.17
2022-12-08T20:49:37.386Z,21.15
2022-12-08T20:52:04.650Z,19.35
2022-12-08T20:54:31.335Z,18.08
2022-12-08T20:56:58.175Z,16.90
2022-12-08T20:59:26.467Z,17.92
2022-12-08T21:01:53.412Z,15.30
2022-12-08T21:04:20.742Z,14.93
2022-12-08T21:06:47.798Z,21.27
2022-12-08T21:09:14.509Z,23.05
2022-12-08T21:11:41.271Z,18.95
2022-12-08T21:14:08.071Z,19.73
2022-12-08T21:16:34.759Z,21.95
2022-12-08T21:19:01.489Z,24.20
2022-12-08T21:21:28.287Z,21.17
2022-12-08T21:23:54.849Z,25.42
2022-12-08T21:26:25.954Z,35.78
2022-12-08T21:28:54.836Z,39.92
2022-12-08T21:31:22.017Z,40.50
2022-12-08T21:33:49.210Z,33.92
2022-12-08T21:36:18.842Z,48.00
2022-12-08T21:38:46.283Z,46.90
2022-12-08T21:41:14.206Z,49.55
2022-12-08T21:43:41.432Z,39.83
2022-12-08T21:46:14.166Z,42.85
2022-12-08T21:48:40.878Z,43.33
2022-12-08T21:51:07.705Z,34.95
2022-12-08T21:53:34.318Z,15.40
2022-12-08T21:56:00.850Z,18.42
2022-12-08T21:58:28.627Z,16.63
2022-12-08T22:00:55.192Z,18.80
2022-12-08T22:03:22.027Z,20.48
2022-12-08T22:05:48.800Z,17.00
2022-12-08T22:08:15.508Z,18.50
2022-12-08T22:11:22.424Z,18.63
2022-12-08T22:14:28.791Z,16.42
2022-12-08T22:17:35.557Z,19.23
2022-12-08T22:23:45.951Z,14.90
2022-12-08T22:26:12.651Z,12.80
2022-12-08T22:29:19.253Z,15.65
2022-12-08T22:31:45.810Z,18.58
2022-12-08T22:34:52.291Z,15.27
2022-12-08T22:37:58.633Z,16.05
2022-12-08T22:43:57.271Z,17.23
2022-12-08T22:47:03.834Z,17.23
2022-12-08T22:50:10.802Z,18.60
2022-12-08T22:52:37.942Z,16.17
2022-12-08T22:55:44.749Z,18.17
2022-12-08T22:58:11.883Z,15.55
2022-12-08T23:00:38.976Z,14.00
2022-12-08T23:03:06.422Z,15.07
2022-12-08T23:05:34.413Z,16.63
2022-12-08T23:08:01.508Z,16.15
2022-12-08T23:10:28.858Z,18.15
2022-12-08T23:12:58.041Z,16.98
2022-12-08T23:15:29.292Z,16.15
2022-12-08T23:17:56.171Z,15.52
2022-12-08T23:20:22.943Z,16.35
2022-12-08T23:22:49.450Z,17.27
2022-12-08T23:25:18.556Z,19.15
2022-12-08T23:27:46.044Z,18.30
2022-12-08T23:30:13.147Z,15.52
2022-12-08T23:32:40.039Z,16.38
2022-12-08T23:35:07.520Z,22.10
2022-12-08T23:37:34.305Z,18.77
2022-12-08T23:40:01.025Z,17.98
2022-12-08T23:42:28.863Z,18.52
2022-12-08T23:44:55.627Z,19.20
2022-12-08T23:47:22.526Z,17.20
2022-12-08T23:49:49.201Z,19.45
2022-12-08T23:52:16.031Z,14.77
2022-12-08T23:54:42.770Z,15.40
2022-12-08T23:57:09.465Z,16.88
2022-12-08T23:59:35.994Z,16.48
